createdAt,value
2018-04-19T00:00:39.783Z,103258.75
2018-04-19T00:03:07.280Z,103259.25
2018-04-19T00:05:34.728Z,103253.11
2018-04-19T00:08:02.208Z,103254.43
2018-04-19T00:10:29.690Z,103256.95
2018-04-19T00:12:57.184Z,103260.56
2018-04-19T00:15:24.652Z,103258.77
2018-04-19T00:17:52.147Z,103251.83
2018-04-19T00:20:19.607Z,103247.37
2018-04-19T00:22:47.136Z,103239.60
2018-04-19T00:25:14.609Z,103241.80
2018-04-19T00:27:42.067Z,103241.18
2018-04-19T00:30:09.581Z,103241.70
2018-04-19T00:32:37.040Z,103243.53
2018-04-19T00:35:04.532Z,103240.80
2018-04-19T00:37:32.925Z,103240.58
2018-04-19T00:40:00.428Z,103248.28
2018-04-19T00:42:27.889Z,103243.18
2018-04-19T00:44:55.375Z,103244.73
2018-04-19T00:47:22.844Z,103245.33
2018-04-19T00:49:50.332Z,103240.15
2018-04-19T00:52:17.796Z,103239.42
2018-04-19T00:54:45.296Z,103234.91
2018-04-19T00:57:12.752Z,103233.56
2018-04-19T00:59:40.260Z,103238.91
2018-04-19T01:02:07.719Z,103236.08
2018-04-19T01:04:35.208Z,103238.75
2018-04-19T01:07:02.684Z,103234.38
2018-04-19T01:09:30.196Z,103238.69
2018-04-19T01:11:57.651Z,103232.94
2018-04-19T01:14:25.108Z,103226.31
2018-04-19T01:16:52.592Z,103231.03
2018-04-19T01:19:20.053Z,103230.75
2018-04-19T01:21:47.575Z,103231.70
2018-04-19T01:24:15.032Z,103227.02
2018-04-19T01:26:43.487Z,103219.86
2018-04-19T01:29:10.953Z,103213.75
2018-04-19T01:31:39.511Z,103219.06
2018-04-19T01:34:06.968Z,103211.67
2018-04-19T01:36:34.451Z,103212.75
2018-04-19T01:39:02.895Z,103209.34
2018-04-19T01:41:30.382Z,103207.55
2018-04-19T01:43:57.844Z,103209.34
2018-04-19T01:46:26.249Z,103210.77
2018-04-19T01:48:53.706Z,103205.17
2018-04-19T01:51:21.196Z,103209.34
2018-04-19T01:53:48.651Z,103202.52
2018-04-19T01:56:16.138Z,103205.89
2018-04-19T01:58:44.494Z,103210.41
2018-04-19T02:01:11.990Z,103211.19
2018-04-19T02:03:39.455Z,103212.63
2018-04-19T02:06:06.928Z,103211.78
2018-04-19T02:08:34.435Z,103208.55
2018-04-19T02:11:01.901Z,103212.45
2018-04-19T02:13:29.408Z,103214.64
2018-04-19T02:15:56.873Z,103211.27
2018-04-19T02:18:24.375Z,103210.11
2018-04-19T02:20:51.831Z,103212.03
2018-04-19T02:23:19.313Z,103210.30
2018-04-19T02:25:46.795Z,103206.17
2018-04-19T02:28:14.285Z,103205.50
2018-04-19T02:30:41.740Z,103212.16
2018-04-19T02:33:09.237Z,103209.80
2018-04-19T02:35:37.326Z,103205.91
2018-04-19T02:38:04.809Z,103200.16
2018-04-19T02:40:32.268Z,103208.45
2018-04-19T02:42:59.752Z,103204.14
2018-04-19T02:45:27.229Z,103203.69
2018-04-19T02:47:54.742Z,103202.81
2018-04-19T02:50:22.224Z,103197.17
2018-04-19T02:52:49.723Z,103200.97
2018-04-19T02:55:18.152Z,103197.88
2018-04-19T02:57:45.645Z,103195.34
2018-04-19T03:00:13.117Z,103194.30
2018-04-19T03:02:40.628Z,103194.44
2018-04-19T03:05:08.089Z,103195.53
2018-04-19T03:07:35.556Z,103195.14
2018-04-19T03:10:03.043Z,103193.23
2018-04-19T03:12:30.515Z,103194.98
2018-04-19T03:14:58.031Z,103196.05
2018-04-19T03:17:25.500Z,103194.70
2018-04-19T03:19:52.997Z,103195.55
2018-04-19T03:22:20.457Z,103199.26
2018-04-19T03:24:47.956Z,103195.42
2018-04-19T03:27:15.416Z,103192.94
2018-04-19T03:29:42.914Z,103191.31
2018-04-19T03:32:10.383Z,103192.23
2018-04-19T03:34:37.901Z,103196.16
2018-04-19T03:37:06.377Z,103196.09
2018-04-19T03:39:33.869Z,103187.56
2018-04-19T03:42:02.312Z,103184.80
2018-04-19T03:44:29.843Z,103183.44
2018-04-19T03:46:57.317Z,103195.67
2018-04-19T03:49:25.707Z,103194.20
2018-04-19T03:51:53.254Z,103194.47
2018-04-19T03:54:20.714Z,103187.99
2018-04-19T03:56:48.214Z,103187.14
2018-04-19T03:59:15.674Z,103194.38
2018-04-19T04:01:43.179Z,103193.27
2018-04-19T04:04:10.646Z,103193.11
2018-04-19T04:06:38.150Z,103190.16
2018-04-19T04:09:06.488Z,103185.98
2018-04-19T04:11:33.981Z,103187.90
2018-04-19T04:14:01.448Z,103186.83
2018-04-19T04:16:40.822Z,103197.69
2018-04-19T04:19:20.011Z,103190.95
2018-04-19T04:21:59.288Z,103192.54
2018-04-19T04:24:26.756Z,103190.95
2018-04-19T04:26:54.256Z,103196.17
2018-04-19T04:29:22.584Z,103193.65
2018-04-19T04:31:50.076Z,103194.50
2018-04-19T04:34:17.548Z,103200.18
2018-04-19T04:36:45.034Z,103203.84
2018-04-19T04:39:12.492Z,103202.20
2018-04-19T04:41:40.016Z,103207.31
2018-04-19T04:44:07.476Z,103202.37
2018-04-19T04:46:34.947Z,103209.00
2018-04-19T04:49:03.412Z,103209.36
2018-04-19T04:51:31.332Z,103212.02
2018-04-19T04:53:59.770Z,103217.80
2018-04-19T04:56:28.216Z,103215.30
2018-04-19T04:58:55.705Z,103211.16
2018-04-19T05:01:23.164Z,103216.54
2018-04-19T05:03:50.653Z,103212.46
2018-04-19T05:06:20.107Z,103206.45
2018-04-19T05:08:47.609Z,103209.34
2018-04-19T05:11:15.084Z,103210.35
2018-04-19T05:13:42.585Z,103213.70
2018-04-19T05:16:11.436Z,103201.89
2018-04-19T05:18:38.943Z,103204.57
2018-04-19T05:21:06.403Z,103204.17
2018-04-19T05:23:33.907Z,103207.47
2018-04-19T05:26:01.368Z,103216.78
2018-04-19T05:28:28.864Z,103216.45
2018-04-19T05:30:56.324Z,103205.03
2018-04-19T05:33:23.811Z,103202.50
2018-04-19T05:35:52.195Z,103214.52
2018-04-19T05:38:19.691Z,103211.56
2018-04-19T05:40:47.145Z,103210.12
2018-04-19T05:43:14.594Z,103209.19
2018-04-19T05:45:43.105Z,103210.34
2018-04-19T05:48:10.587Z,103213.89
2018-04-19T05:50:40.048Z,103218.47
2018-04-19T05:53:07.512Z,103208.38
2018-04-19T05:55:35.012Z,103208.89
2018-04-19T05:58:02.759Z,103207.65
2018-04-19T06:00:30.248Z,103213.98
2018-04-19T06:02:57.712Z,103215.48
2018-04-19T06:05:25.224Z,103210.56
2018-04-19T06:07:52.688Z,103203.91
2018-04-19T06:10:20.229Z,103213.16
2018-04-19T06:12:47.695Z,103222.30
2018-04-19T06:15:15.211Z,103219.80
2018-04-19T06:17:42.652Z,103220.77
2018-04-19T06:20:10.420Z,103221.62
2018-04-19T06:22:37.879Z,103217.71
2018-04-19T06:25:05.335Z,103213.31
2018-04-19T06:27:32.827Z,103210.52
2018-04-19T06:30:00.311Z,103208.22
2018-04-19T06:32:28.735Z,103203.82
2018-04-19T06:34:56.216Z,103208.27
2018-04-19T06:37:23.717Z,103209.28
2018-04-19T06:39:51.184Z,103214.13
2018-04-19T06:42:18.671Z,103210.28
2018-04-19T06:44:47.112Z,103209.55
2018-04-19T06:47:17.766Z,103218.12
2018-04-19T06:49:46.128Z,103213.89
2018-04-19T06:52:13.635Z,103220.61
2018-04-19T06:54:41.089Z,103217.47
2018-04-19T06:57:08.531Z,103220.21
2018-04-19T06:59:36.011Z,103219.27
2018-04-19T07:02:03.468Z,103222.98
2018-04-19T07:04:30.947Z,103222.77
2018-04-19T07:06:58.405Z,103217.92
2018-04-19T07:09:25.889Z,103228.16
2018-04-19T07:11:53.345Z,103229.02
2018-04-19T07:14:22.772Z,103224.41
2018-04-19T07:16:50.229Z,103224.38
2018-04-19T07:19:17.712Z,103219.87
2018-04-19T07:21:45.168Z,103224.94
2018-04-19T07:24:12.644Z,103218.00
2018-04-19T07:26:40.099Z,103219.95
2018-04-19T07:29:07.600Z,103221.59
2018-04-19T07:31:36.052Z,103214.89
2018-04-19T07:34:03.508Z,103218.05
2018-04-19T07:36:30.999Z,103216.09
2018-04-19T07:38:58.481Z,103221.63
2018-04-19T07:41:25.939Z,103211.95
2018-04-19T07:43:53.395Z,103214.05
2018-04-19T07:46:21.796Z,103213.34
2018-04-19T07:48:49.248Z,103207.77
2018-04-19T07:51:16.740Z,103207.53
2018-04-19T07:53:44.196Z,103209.37
2018-04-19T07:56:12.732Z,103203.53
2018-04-19T07:58:40.209Z,103203.62
2018-04-19T08:01:07.703Z,103205.36
2018-04-19T08:03:35.163Z,103205.33
2018-04-19T08:06:02.646Z,103208.92
2018-04-19T08:08:30.096Z,103206.11
2018-04-19T08:10:57.580Z,103208.50
2018-04-19T08:13:25.027Z,103215.66
2018-04-19T08:15:52.532Z,103206.25
2018-04-19T08:18:19.994Z,103208.00
2018-04-19T08:20:47.451Z,103205.47
2018-04-19T08:23:14.936Z,103204.69
2018-04-19T08:25:42.393Z,103205.23
2018-04-19T08:28:09.875Z,103210.23
2018-04-19T08:30:37.337Z,103206.91
2018-04-19T08:33:04.832Z,103204.98
2018-04-19T08:35:32.299Z,103199.31
2018-04-19T08:37:59.783Z,103198.21
2018-04-19T08:40:27.242Z,103199.26
2018-04-19T08:42:54.706Z,103201.97
2018-04-19T08:45:23.047Z,103199.27
2018-04-19T08:47:50.537Z,103197.77
2018-04-19T08:50:18.033Z,103194.86
2018-04-19T08:52:45.489Z,103192.55
2018-04-19T08:55:12.957Z,103191.80
2018-04-19T08:57:41.440Z,103193.16
2018-04-19T09:00:08.896Z,103191.41
2018-04-19T09:02:36.349Z,103181.95
2018-04-19T09:05:03.833Z,103185.53
2018-04-19T09:07:31.292Z,103187.77
2018-04-19T09:09:58.781Z,103186.50
2018-04-19T09:12:26.255Z,103189.90
2018-04-19T09:14:53.740Z,103187.88
2018-04-19T09:17:21.203Z,103191.07
2018-04-19T09:19:48.698Z,103185.65
2018-04-19T09:22:16.152Z,103189.80
2018-04-19T09:24:43.635Z,103189.63
2018-04-19T09:27:11.084Z,103191.05
2018-04-19T09:29:38.606Z,103189.30
2018-04-19T09:32:06.070Z,103197.30
2018-04-19T09:34:33.533Z,103193.05
2018-04-19T09:37:01.016Z,103190.36
2018-04-19T09:39:28.484Z,103197.49
2018-04-19T09:41:55.964Z,103185.98
2018-04-19T09:44:23.411Z,103193.31
2018-04-19T09:46:51.845Z,103187.36
2018-04-19T09:49:19.300Z,103182.74
2018-04-19T09:51:46.779Z,103178.94
2018-04-19T09:54:14.275Z,103181.14
2018-04-19T09:56:41.733Z,103175.08
2018-04-19T09:59:13.903Z,103174.16
2018-04-19T10:01:47.170Z,103171.48
2018-04-19T10:04:14.625Z,103168.70
2018-04-19T10:06:42.117Z,103163.72
2018-04-19T10:09:09.585Z,103167.09
2018-04-19T10:11:37.076Z,103151.14
2018-04-19T10:14:04.533Z,103162.48
2018-04-19T10:16:32.034Z,103152.44
2018-04-19T10:18:59.504Z,103161.77
2018-04-19T10:21:27.025Z,103152.70
2018-04-19T10:26:30.320Z,103154.25
2018-04-19T10:28:57.792Z,103146.98
2018-04-19T10:31:25.249Z,103152.56
2018-04-19T10:33:52.801Z,103148.77
2018-04-19T10:36:21.224Z,103143.12
2018-04-19T10:38:48.711Z,103140.77
2018-04-19T10:41:16.242Z,103135.20
2018-04-19T10:43:43.700Z,103132.33
2018-04-19T10:46:11.169Z,103127.26
2018-04-19T10:48:38.656Z,103129.22
2018-04-19T10:51:06.123Z,103124.05
2018-04-19T10:53:33.613Z,103123.40
2018-04-19T10:56:01.088Z,103114.75
2018-04-19T10:58:28.576Z,103122.65
2018-04-19T11:00:57.053Z,103109.73
2018-04-19T11:03:24.524Z,103102.80
2018-04-19T11:05:52.001Z,103111.96
2018-04-19T11:08:19.497Z,103102.22
2018-04-19T11:10:46.957Z,103107.97
2018-04-19T11:13:14.425Z,103100.78
2018-04-19T11:15:41.933Z,103096.23
2018-04-19T11:18:09.404Z,103094.18
2018-04-19T11:20:37.835Z,103097.87
2018-04-19T11:23:05.300Z,103095.11
2018-04-19T11:25:33.776Z,103099.89
2018-04-19T11:28:01.247Z,103090.59
2018-04-19T11:30:29.700Z,103089.52
2018-04-19T11:32:57.156Z,103094.55
2018-04-19T11:35:24.655Z,103093.26
2018-04-19T11:37:52.122Z,103081.93
2018-04-19T11:40:20.524Z,103087.91
2018-04-19T11:42:48.002Z,103088.21
2018-04-19T11:45:15.516Z,103082.49
2018-04-19T11:47:43.915Z,103077.78
2018-04-19T11:50:11.399Z,103071.03
2018-04-19T11:52:38.864Z,103074.63
2018-04-19T11:55:06.359Z,103081.48
2018-04-19T11:57:34.791Z,103074.58
2018-04-19T12:00:02.274Z,103075.66
2018-04-19T12:02:29.732Z,103076.75
2018-04-19T12:04:57.200Z,103073.81
2018-04-19T12:07:24.704Z,103074.67
2018-04-19T12:09:52.165Z,103069.23
2018-04-19T12:20:12.139Z,103067.20
2018-04-19T12:22:40.613Z,103074.64
2018-04-19T12:25:11.927Z,103065.27
2018-04-19T12:27:40.323Z,103065.05
2018-04-19T12:30:07.783Z,103068.19
2018-04-19T12:32:35.270Z,103064.80
2018-04-19T12:35:02.735Z,103065.30
2018-04-19T12:37:30.278Z,103060.62
2018-04-19T12:39:57.687Z,103062.50
2018-04-19T12:42:26.097Z,103062.10
2018-04-19T12:44:53.556Z,103068.84
2018-04-19T12:47:21.069Z,103069.23
2018-04-19T12:49:48.536Z,103063.47
2018-04-19T12:52:15.983Z,103061.40
2018-04-19T12:54:43.471Z,103057.84
2018-04-19T12:57:10.928Z,103058.58
2018-04-19T12:59:38.411Z,103060.61
2018-04-19T13:02:05.867Z,103063.02
2018-04-19T13:04:34.262Z,103051.84
2018-04-19T13:07:02.668Z,103051.05
2018-04-19T13:09:30.149Z,103047.83
2018-04-19T13:11:58.612Z,103047.22
2018-04-19T13:14:26.100Z,103037.73
2018-04-19T13:16:53.563Z,103030.34
2018-04-19T13:19:21.053Z,103032.92
2018-04-19T13:21:48.514Z,103029.69
2018-04-19T13:24:16.947Z,103018.11
2018-04-19T13:26:44.407Z,103023.44
2018-04-19T13:29:11.893Z,103022.83
2018-04-19T13:31:39.368Z,103015.91
2018-04-19T13:34:06.856Z,103018.98
2018-04-19T13:36:34.312Z,103013.77
2018-04-19T13:39:01.772Z,103008.65
2018-04-19T13:41:36.033Z,103006.52
2018-04-19T13:44:03.497Z,103009.48
2018-04-19T13:46:30.980Z,102996.78
2018-04-19T13:48:58.431Z,102991.15
2018-04-19T13:51:25.916Z,102991.69
2018-04-19T13:53:53.375Z,102989.79
2018-04-19T13:56:20.882Z,102984.62
2018-04-19T13:58:48.341Z,102987.53
2018-04-19T14:01:15.839Z,102991.07
2018-04-19T14:03:43.307Z,102991.27
2018-04-19T14:06:10.803Z,102983.35
2018-04-19T14:08:38.278Z,102975.82
2018-04-19T14:11:05.773Z,102984.48
2018-04-19T14:13:35.248Z,102973.62
2018-04-19T14:16:03.739Z,102971.52
2018-04-19T14:18:31.207Z,102968.01
2018-04-19T14:20:59.635Z,102967.05
2018-04-19T14:23:27.119Z,102968.69
2018-04-19T14:25:54.575Z,102966.97
2018-04-19T14:28:22.062Z,102951.45
2018-04-19T14:30:49.508Z,102953.02
2018-04-19T14:33:17.000Z,102963.30
2018-04-19T14:35:44.456Z,102953.47
2018-04-19T14:38:11.949Z,102952.64
2018-04-19T14:40:39.411Z,102950.73
2018-04-19T14:43:06.902Z,102949.95
2018-04-19T14:45:34.383Z,102946.08
2018-04-19T14:48:03.843Z,102953.10
2018-04-19T14:50:31.304Z,102946.05
2018-04-19T14:52:58.811Z,102943.62
2018-04-19T14:55:26.331Z,102949.43
2018-04-19T14:57:53.771Z,102942.02
2018-04-19T15:00:21.236Z,102940.66
2018-04-19T15:02:48.729Z,102944.81
2018-04-19T15:05:16.200Z,102942.72
2018-04-19T15:07:43.695Z,102941.05
2018-04-19T15:10:11.156Z,102936.89
2018-04-19T15:12:38.665Z,102934.83
2018-04-19T15:15:06.136Z,102938.47
2018-04-19T15:17:33.641Z,102933.09
2018-04-19T15:20:01.128Z,102930.89
2018-04-19T15:22:30.595Z,102930.94
2018-04-19T15:24:58.051Z,102923.55
2018-04-19T15:27:25.508Z,102931.60
2018-04-19T15:29:52.995Z,102927.36
2018-04-19T15:32:21.351Z,102922.28
2018-04-19T15:34:58.595Z,102927.19
2018-04-19T15:37:27.008Z,102919.92
2018-04-19T15:39:55.419Z,102920.32
2018-04-19T15:42:22.872Z,102921.39
2018-04-19T15:44:50.366Z,102911.98
2018-04-19T15:47:17.817Z,102917.77
2018-04-19T15:49:45.316Z,102917.10
2018-04-19T15:52:12.775Z,102916.74
2018-04-19T15:54:40.267Z,102911.46
2018-04-19T15:57:07.740Z,102905.88
2018-04-19T15:59:35.228Z,102903.27
2018-04-19T16:02:02.752Z,102901.73
2018-04-19T16:04:31.232Z,102904.42
2018-04-19T16:06:58.703Z,102903.98
2018-04-19T16:09:26.191Z,102903.75
2018-04-19T16:11:53.662Z,102901.21
2018-04-19T16:14:21.135Z,102897.26
2018-04-19T16:16:48.602Z,102891.34
2018-04-19T16:19:16.077Z,102895.76
2018-04-19T16:21:45.524Z,102894.31
2018-04-19T16:24:12.975Z,102891.70
2018-04-19T16:26:40.444Z,102888.86
2018-04-19T16:29:08.817Z,102881.42
2018-04-19T16:31:36.279Z,102883.97
2018-04-19T16:34:03.719Z,102877.68
2018-04-19T16:36:32.102Z,102873.53
2018-04-19T16:39:00.485Z,102876.11
2018-04-19T16:41:27.967Z,102871.27
2018-04-19T16:43:57.264Z,102879.42
2018-04-19T16:46:24.790Z,102870.25
2018-04-19T16:48:52.263Z,102875.91
2018-04-19T16:51:19.748Z,102884.11
2018-04-19T16:53:47.211Z,102873.61
2018-04-19T16:56:14.726Z,102868.66
2018-04-19T17:01:51.768Z,102868.68
2018-04-19T17:04:19.239Z,102863.34
2018-04-19T17:06:46.728Z,102860.45
2018-04-19T17:09:14.195Z,102864.85
2018-04-19T17:11:41.680Z,102864.77
2018-04-19T17:14:09.291Z,102864.13
2018-04-19T17:16:36.796Z,102862.55
2018-04-19T17:19:05.182Z,102857.28
2018-04-19T17:21:32.709Z,102858.86
2018-04-19T17:24:00.181Z,102862.77
2018-04-19T17:26:27.900Z,102861.14
2018-04-19T17:28:56.327Z,102861.65
2018-04-19T17:31:23.811Z,102856.60
2018-04-19T17:33:52.308Z,102849.70
2018-04-19T17:36:19.763Z,102853.41
2018-04-19T17:38:47.246Z,102858.27
2018-04-19T17:41:14.744Z,102849.86
2018-04-19T17:43:42.232Z,102849.11
2018-04-19T17:46:09.712Z,102848.16
2018-04-19T17:48:37.217Z,102848.80
2018-04-19T17:51:04.676Z,102839.65
2018-04-19T17:53:32.163Z,102838.09
2018-04-19T17:55:59.692Z,102835.58
2018-04-19T17:58:27.175Z,102831.66
2018-04-19T18:00:54.635Z,102833.00
2018-04-19T18:03:22.127Z,102829.13
2018-04-19T18:05:50.562Z,102824.33
2018-04-19T18:08:18.959Z,102828.33
2018-04-19T18:10:46.992Z,102824.86
2018-04-19T18:13:14.484Z,102825.00
2018-04-19T18:15:41.931Z,102825.52
2018-04-19T18:18:09.394Z,102828.53
2018-04-19T18:20:36.875Z,102832.82
2018-04-19T18:23:05.112Z,102835.58
2018-04-19T18:25:33.523Z,102833.62
2018-04-19T18:28:01.984Z,102837.98
2018-04-19T18:30:29.482Z,102832.91
2018-04-19T18:32:56.956Z,102843.24
2018-04-19T18:35:24.446Z,102842.41
2018-04-19T18:37:51.918Z,102845.30
2018-04-19T18:40:19.423Z,102845.46
2018-04-19T18:42:46.879Z,102845.05
2018-04-19T18:45:14.399Z,102849.08
2018-04-19T18:47:41.951Z,102844.70
2018-04-19T18:50:09.447Z,102849.35
2018-04-19T18:52:36.928Z,102842.92
2018-04-19T18:55:04.429Z,102844.94
2018-04-19T18:57:31.976Z,102849.88
2018-04-19T18:59:59.479Z,102847.17
2018-04-19T19:02:26.940Z,102845.27
2018-04-19T19:04:55.845Z,102842.75
2018-04-19T19:07:23.344Z,102838.25
2018-04-19T19:09:50.818Z,102840.63
2018-04-19T19:12:18.416Z,102836.44
2018-04-19T19:14:49.336Z,102839.87
2018-04-19T19:17:30.443Z,102839.53
2018-04-19T19:20:09.832Z,102843.23
2018-04-19T19:22:38.344Z,102838.55
2018-04-19T19:25:05.827Z,102842.16
2018-04-19T19:27:33.307Z,102841.61
2018-04-19T19:30:00.741Z,102843.13
2018-04-19T19:32:28.209Z,102838.92
2018-04-19T19:34:55.661Z,102842.98
2018-04-19T19:37:23.149Z,102832.99
2018-04-19T19:39:50.625Z,102834.09
2018-04-19T19:42:18.147Z,102834.64
2018-04-19T19:44:45.645Z,102825.50
2018-04-19T19:47:14.091Z,102832.08
2018-04-19T19:49:41.555Z,102833.84
2018-04-19T19:52:09.065Z,102826.67
2018-04-19T19:54:36.520Z,102833.63
2018-04-19T19:57:04.000Z,102822.80
2018-04-19T19:59:31.501Z,102825.77
2018-04-19T20:01:59.032Z,102825.34
2018-04-19T20:04:26.523Z,102828.06
2018-04-19T20:06:54.119Z,102833.83
2018-04-19T20:09:21.617Z,102827.64
2018-04-19T20:11:49.103Z,102827.36
2018-04-19T20:14:16.568Z,102830.39
2018-04-19T20:16:44.069Z,102821.16
2018-04-19T20:19:11.535Z,102823.32
2018-04-19T20:21:39.023Z,102828.02
2018-04-19T20:24:06.489Z,102821.67
2018-04-19T20:26:34.007Z,102822.16
2018-04-19T20:29:01.554Z,102813.05
2018-04-19T20:31:29.056Z,102810.84
2018-04-19T20:33:56.512Z,102813.44
2018-04-19T20:36:24.043Z,102808.48
2018-04-19T20:38:51.610Z,102808.20
2018-04-19T20:41:19.064Z,102801.68
2018-04-19T20:43:46.553Z,102802.80
2018-04-19T20:46:14.075Z,102801.28
2018-04-19T20:48:41.579Z,102796.84
2018-04-19T20:51:09.088Z,102798.84
2018-04-19T20:53:37.669Z,102796.33
2018-04-19T20:56:05.229Z,102794.02
2018-04-19T20:58:32.717Z,102793.47
2018-04-19T21:01:00.170Z,102786.88
2018-04-19T21:03:27.660Z,102787.21
2018-04-19T21:05:55.123Z,102782.20
2018-04-19T21:08:22.608Z,102777.36
2018-04-19T21:10:50.084Z,102779.69
2018-04-19T21:13:17.569Z,102784.83
2018-04-19T21:15:45.031Z,102776.84
2018-04-19T21:18:12.533Z,102782.56
2018-04-19T21:20:39.996Z,102782.61
2018-04-19T21:23:07.528Z,102779.56
2018-04-19T21:25:34.979Z,102775.56
2018-04-19T21:28:03.487Z,102772.31
2018-04-19T21:30:31.046Z,102771.59
2018-04-19T21:32:58.580Z,102776.06
2018-04-19T21:35:26.079Z,102766.98
2018-04-19T21:37:55.531Z,102763.16
2018-04-19T21:40:23.003Z,102761.13
2018-04-19T21:42:50.455Z,102758.45
2018-04-19T21:45:17.934Z,102752.48
2018-04-19T21:47:45.392Z,102752.90
2018-04-19T21:50:12.877Z,102753.94
2018-04-19T21:52:41.329Z,102756.52
2018-04-19T21:55:08.917Z,102747.23
2018-04-19T21:57:36.379Z,102739.15
2018-04-19T22:00:03.868Z,102741.38
2018-04-19T22:02:31.387Z,102743.41
2018-04-19T22:04:58.878Z,102744.88
2018-04-19T22:07:26.345Z,102734.91
2018-04-19T22:09:53.800Z,102733.78
2018-04-19T22:12:21.315Z,102740.84
2018-04-19T22:14:48.772Z,102740.06
2018-04-19T22:17:16.265Z,102736.02
2018-04-19T22:19:43.744Z,102730.03
2018-04-19T22:22:11.229Z,102736.89
2018-04-19T22:24:38.692Z,102735.63
2018-04-19T22:27:06.183Z,102733.54
2018-04-19T22:29:33.641Z,102732.13
2018-04-19T22:32:01.204Z,102725.31
2018-04-19T22:34:28.773Z,102726.49
2018-04-19T22:36:56.262Z,102717.30
2018-04-19T22:39:23.720Z,102723.06
2018-04-19T22:41:51.241Z,102723.02
2018-04-19T22:44:18.690Z,102714.97
2018-04-19T22:46:46.179Z,102712.39
2018-04-19T22:49:13.628Z,102708.69
2018-04-19T22:51:41.127Z,102710.03
2018-04-19T22:54:08.595Z,102704.16
2018-04-19T22:56:36.083Z,102704.03
2018-04-19T22:59:03.569Z,102699.36
2018-04-19T23:01:31.034Z,102697.44
2018-04-19T23:03:58.511Z,102699.41
2018-04-19T23:06:25.969Z,102705.34
2018-04-19T23:08:53.559Z,102695.78
2018-04-19T23:11:21.020Z,102696.77
2018-04-19T23:13:48.508Z,102698.50
2018-04-19T23:16:15.963Z,102696.48
2018-04-19T23:18:43.449Z,102684.54
2018-04-19T23:21:10.952Z,102691.34
2018-04-19T23:23:38.440Z,102695.30
2018-04-19T23:26:05.883Z,102687.28
2018-04-19T23:28:33.368Z,102694.53
2018-04-19T23:31:01.767Z,102690.13
2018-04-19T23:33:29.262Z,102691.79
2018-04-19T23:35:56.723Z,102685.38
2018-04-19T23:38:24.223Z,102681.12
2018-04-19T23:40:51.671Z,102676.92
2018-04-19T23:43:19.123Z,102675.13
2018-04-19T23:45:46.640Z,102677.20
2018-04-19T23:48:14.095Z,102674.08
2018-04-19T23:50:41.663Z,102667.97
2018-04-19T23:53:09.120Z,102669.48
2018-04-19T23:55:36.671Z,102669.98
2018-04-19T23:58:04.123Z,102672.28
